ADDS METAR Data INFO
IDs: Format: Raw Decoded Include TAF

Data at: 2053 UTC 24 Jun 2018

KABI 241952Z 17016G22KT 10SM CLR 36/20 A2977 RMK AO2 SLP048 T03610200 $
KABI 241852Z 19018G27KT 10SM CLR 36/19 A2978 RMK AO2 PK WND 18029/1832 SLP049 T03560194 $
KABI 241752Z 20013G21KT 10SM CLR 34/20 A2980 RMK AO2 SLP057 T03390200 10339 20250 58002 $
KABI 241652Z 17015G22KT 10SM CLR 32/21 A2981 RMK AO2 PK WND 19027/1616 SLP065 T03220206 $
KABI 241552Z 18015G23KT 10SM CLR 30/21 A2981 RMK AO2 SLP066 T03000211 $
KABI 241452Z 18016G22KT 9SM CLR 28/21 A2980 RMK AO2 PK WND 19027/1421 SLP064 T02830211 51018 $
KABI 241352Z 19018G26KT 8SM CLR 26/21 A2979 RMK AO2 PK WND 20028/1310 SLP056 T02610211 $
KABI 241252Z 20019G26KT 8SM CLR 26/21 A2977 RMK AO2 PK WND 19029/1219 SLP048 T02560211 $
KABI 241152Z 19015G23KT 7SM CLR 25/22 A2975 RMK AO2 SLP041 70038 T02500217 10306 20250 53007 $
KABI 241052Z 18015G24KT 9SM CLR 25/22 A2974 RMK AO2 SLP039 T02500222 $
KABI 240952Z 19014G22KT 10SM CLR 26/22 A2972 RMK AO2 PK WND 19027/0918 SLP031 T02560217 $
KABI 240852Z 19018G25KT 10SM CLR 27/21 A2973 RMK AO2 PK WND 20031/0819 SLP033 T02670211 50007 $
KABI 240752Z 20019G26KT 10SM CLR 27/01 A2974 RMK AO2 PK WND 20026/0749 SLP039 T02720006 $
KABI 240652Z 21012KT 10SM CLR 29/11 A2974 RMK AO2 PK WND 15028/0609 SLP036 T02890111 $
KABI 240552Z 15018KT 10SM CLR 31/11 A2971 RMK AO2 PK WND 14032/0510 SLP026 60038 T03060106 10372 20228 403830228 58023 $
KABI 240452Z 15020G28KT 10SM CLR 27/15 A2973 RMK AO2 PK WND 14037/0423 WSHFT 0339 LTG DSNT NE-SE TSE06 PRESFR SLP035 T02670150 $
KABI 240435Z 14017G26KT 10SM CLR 26/15 A2975 RMK AO2 PK WND 14037/0423 WSHFT 0339 LTG DSNT E-SW TSE06 T02560150 $
KABI 240412Z 13022G30KT 10SM VCTS FEW120 25/15 A2974 RMK AO2 PK WND 12030/0407 WSHFT 0339 LTG DSNT ALQDS TSE06 T02500150 $
KABI 240359Z 15015G22KT 10SM TS FEW039 FEW100 SCT120 24/16 A2976 RMK AO2 WSHFT 0339 LTG DSNT ALQDS T02440156 $
KABI 240352Z 14011G24KT 10SM TS FEW039 SCT100 BKN120 24/17 A2977 RMK AO2 PK WND 09032/0258 WSHFT 0337 LTG DSNT ALQDS RAE50 TSE43B46 SLP051 P0038 T02390167 $
KABI 240314Z VRB04G26KT 6SM -TSRA FEW026 BKN075 OVC110 26/19 A2986 RMK AO2 PK WND 09032/0258 WSHFT 0246 LTG DSNT ALQDS P0031 T02560194 $
KABI 240305Z 16014G32KT 120V210 2SM +TSRA FEW024 BKN075 OVC095 26/19 A2984 RMK AO2 PK WND 09032/0258 WSHFT 0246 LTG DSNT ALQDS PRESRR P0029 T02610194 $
KABI 240257Z 07011G24KT 030V140 1 3/4SM +TSRA SCT028 BKN070 OVC100 27/20 A2980 RMK AO2 LTG DSNT ALQDS PRESRR P0008 T02720200 $
KABI 240252Z 25019G27KT 7SM -TSRA FEW047 BKN075 OVC100 27/21 A2978 RMK AO2 PK WND 27027/0247 LTG DSNT ALQDS RAB38 TSB12 SLP055 P0000 60000 T02720206 53037 $
KABI 240212Z 13020G25KT 10SM TS CLR 34/17 A2963 RMK AO2 LTG DSNT ALQDS TSB12 T03440172 $
KABI 240152Z 15019G24KT 10SM CLR 35/17 A2963 RMK AO2 LTG DSNT SW-N SLP000 T03500172 $
KABI 240052Z 14013KT 10SM CLR 36/18 A2966 RMK AO2 LTG DSNT N SLP011 T03610178 $
KABI 232352Z 14014KT 10SM FEW110 37/19 A2967 RMK AO2 SLP013 T03720189 10383 20339 58018 $
KABI 232252Z 15014KT 10SM FEW090 37/19 A2969 RMK AO2 SLP021 T03720194 $
KABI 232152Z 14015G21KT 10SM CLR 37/21 A2970 RMK AO2 SLP024 T03720206 $
KABI 232052Z 15015KT 10SM BKN075 37/21 A2972 RMK AO2 SLP031 T03720206 56019 $
KABI 231952Z 16015KT 10SM SCT065 36/20 A2974 RMK AO2 PK WND 15027/1907 SLP036 T03560200 $
KABI 231852Z 15014G23KT 10SM CLR 36/21 A2975 RMK AO2 PK WND 15028/1808 SLP041 T03560211 $
KABI 231752Z 19013G23KT 10SM CLR 34/21 A2978 RMK AO2 SLP051 T03440211 10344 20250 58010 $
KABI 231652Z 15017KT 10SM SCT042 32/22 A2982 RMK AO2 SLP063 T03220217 $
KABI 231552Z 16014G18KT 10SM BKN036 30/21 A2982 RMK AO2 SLP066 T03000211 $
KABI 231521Z 16017KT 10SM FEW003 SCT032 29/22 A2981 RMK AO2 T02940217 $
KABI 231452Z 18017G25KT 10SM FEW031 29/21 A2981 RMK AO2 PK WND 18027/1436 SLP064 T02890211 50000
KABI 231352Z 15015KT 8SM SCT032 27/21 A2982 RMK AO2 SLP067 T02670211
KABI 231252Z 11009KT 8SM FEW038 26/21 A2983 RMK AO2 SLP068 T02610206
KABI 231152Z 10009KT 8SM CLR 26/19 A2981 RMK AO2 SLP063 T02560194 10306 20256 51036
KABI 231052Z 15013KT 10SM CLR 26/19 A2978 RMK AO2 PRESFR SLP050 T02610189
KABI 230952Z 14008KT 10SM CLR 27/18 A2978 RMK AO2 SLP052 T02720183